sensor_id;sensor_type;location;lat;lon;timestamp;temperature;humidity
66710;DHT22;53624;0.000;0.000;2023-09-19T00:01:35;21.00;99.90
66710;DHT22;53624;0.000;0.000;2023-09-19T00:04:04;21.00;99.90
66710;DHT22;53624;0.000;0.000;2023-09-19T00:06:35;21.00;99.90
66710;DHT22;53624;0.000;0.000;2023-09-19T00:09:03;21.00;99.90
66710;DHT22;53624;0.000;0.000;2023-09-19T00:11:30;21.00;99.90
66710;DHT22;53624;0.000;0.000;2023-09-19T00:13:57;21.00;99.90
66710;DHT22;53624;0.000;0.000;2023-09-19T00:16:26;21.00;99.90
66710;DHT22;53624;0.000;0.000;2023-09-19T00:18:53;21.00;99.90
66710;DHT22;53624;0.000;0.000;2023-09-19T00:21:22;21.00;99.90
66710;DHT22;53624;0.000;0.000;2023-09-19T00:23:49;20.90;99.90
66710;DHT22;53624;0.000;0.000;2023-09-19T00:26:17;21.00;99.90
66710;DHT22;53624;0.000;0.000;2023-09-19T00:28:48;21.00;99.90
66710;DHT22;53624;0.000;0.000;2023-09-19T00:31:15;21.00;99.90
66710;DHT22;53624;0.000;0.000;2023-09-19T00:33:42;20.90;99.90
66710;DHT22;53624;0.000;0.000;2023-09-19T00:36:10;20.90;99.90
66710;DHT22;53624;0.000;0.000;2023-09-19T00:38:38;20.90;99.90
66710;DHT22;53624;0.000;0.000;2023-09-19T00:41:06;20.90;99.90
66710;DHT22;53624;0.000;0.000;2023-09-19T00:43:33;20.90;99.90
66710;DHT22;53624;0.000;0.000;2023-09-19T00:46:01;20.90;99.90
66710;DHT22;53624;0.000;0.000;2023-09-19T00:48:30;20.90;99.90
66710;DHT22;53624;0.000;0.000;2023-09-19T00:50:57;20.90;99.90
66710;DHT22;53624;0.000;0.000;2023-09-19T00:53:26;20.90;99.90
66710;DHT22;53624;0.000;0.000;2023-09-19T00:55:55;20.90;99.90
66710;DHT22;53624;0.000;0.000;2023-09-19T00:58:23;20.90;99.90
66710;DHT22;53624;0.000;0.000;2023-09-19T01:00:50;20.90;99.90
66710;DHT22;53624;0.000;0.000;2023-09-19T01:03:19;20.90;99.90
66710;DHT22;53624;0.000;0.000;2023-09-19T01:05:46;20.90;99.90
66710;DHT22;53624;0.000;0.000;2023-09-19T01:08:13;20.90;99.90
66710;DHT22;53624;0.000;0.000;2023-09-19T01:10:42;20.90;99.90
66710;DHT22;53624;0.000;0.000;2023-09-19T01:13:13;20.90;99.90
66710;DHT22;53624;0.000;0.000;2023-09-19T01:15:46;20.90;99.90
66710;DHT22;53624;0.000;0.000;2023-09-19T01:18:18;20.90;99.90
66710;DHT22;53624;0.000;0.000;2023-09-19T01:20:52;20.90;99.90
66710;DHT22;53624;0.000;0.000;2023-09-19T01:23:22;20.90;99.90
66710;DHT22;53624;0.000;0.000;2023-09-19T01:25:58;20.90;99.90
66710;DHT22;53624;0.000;0.000;2023-09-19T01:31:22;20.80;99.90
66710;DHT22;53624;0.000;0.000;2023-09-19T01:33:54;20.80;99.90
66710;DHT22;53624;0.000;0.000;2023-09-19T01:36:23;20.80;99.90
66710;DHT22;53624;0.000;0.000;2023-09-19T01:38:50;20.80;99.90
66710;DHT22;53624;0.000;0.000;2023-09-19T01:41:20;20.80;99.90
66710;DHT22;53624;0.000;0.000;2023-09-19T01:43:48;20.80;99.90
66710;DHT22;53624;0.000;0.000;2023-09-19T01:46:17;20.80;99.90
66710;DHT22;53624;0.000;0.000;2023-09-19T01:48:55;20.80;99.90
66710;DHT22;53624;0.000;0.000;2023-09-19T01:51:26;20.80;99.90
66710;DHT22;53624;0.000;0.000;2023-09-19T01:54:00;20.80;99.90
66710;DHT22;53624;0.000;0.000;2023-09-19T01:56:30;20.80;99.90
66710;DHT22;53624;0.000;0.000;2023-09-19T01:58:59;20.80;99.90
66710;DHT22;53624;0.000;0.000;2023-09-19T02:01:29;20.80;99.90
66710;DHT22;53624;0.000;0.000;2023-09-19T02:03:59;20.80;99.90
66710;DHT22;53624;0.000;0.000;2023-09-19T02:06:26;20.80;99.90
66710;DHT22;53624;0.000;0.000;2023-09-19T02:08:53;20.80;99.90
66710;DHT22;53624;0.000;0.000;2023-09-19T02:11:21;20.80;99.90
66710;DHT22;53624;0.000;0.000;2023-09-19T02:13:48;20.80;99.90
66710;DHT22;53624;0.000;0.000;2023-09-19T02:16:20;20.80;99.90
66710;DHT22;53624;0.000;0.000;2023-09-19T02:18:47;20.70;99.90
66710;DHT22;53624;0.000;0.000;2023-09-19T02:21:17;20.80;99.90
66710;DHT22;53624;0.000;0.000;2023-09-19T02:23:45;20.80;99.90
66710;DHT22;53624;0.000;0.000;2023-09-19T02:26:13;20.70;99.90
66710;DHT22;53624;0.000;0.000;2023-09-19T02:28:41;20.70;99.90
66710;DHT22;53624;0.000;0.000;2023-09-19T02:31:08;20.70;99.90
66710;DHT22;53624;0.000;0.000;2023-09-19T02:33:36;20.70;99.90
66710;DHT22;53624;0.000;0.000;2023-09-19T02:36:04;20.70;99.90
66710;DHT22;53624;0.000;0.000;2023-09-19T02:38:35;20.70;99.90
66710;DHT22;53624;0.000;0.000;2023-09-19T02:41:03;20.70;99.90
66710;DHT22;53624;0.000;0.000;2023-09-19T02:43:30;20.70;99.90
66710;DHT22;53624;0.000;0.000;2023-09-19T02:45:58;20.70;99.90
66710;DHT22;53624;0.000;0.000;2023-09-19T02:48:25;20.70;99.90
66710;DHT22;53624;0.000;0.000;2023-09-19T02:50:53;20.70;99.90
66710;DHT22;53624;0.000;0.000;2023-09-19T02:53:20;20.70;99.90
66710;DHT22;53624;0.000;0.000;2023-09-19T02:55:49;20.70;99.90
66710;DHT22;53624;0.000;0.000;2023-09-19T02:58:18;20.70;99.90
66710;DHT22;53624;0.000;0.000;2023-09-19T03:00:45;20.60;99.90
66710;DHT22;53624;0.000;0.000;2023-09-19T03:03:13;20.60;99.90
66710;DHT22;53624;0.000;0.000;2023-09-19T03:05:41;20.60;99.90
66710;DHT22;53624;0.000;0.000;2023-09-19T03:08:13;20.60;99.90
66710;DHT22;53624;0.000;0.000;2023-09-19T03:10:44;20.60;99.90
66710;DHT22;53624;0.000;0.000;2023-09-19T03:13:14;20.60;99.90
66710;DHT22;53624;0.000;0.000;2023-09-19T03:15:41;20.70;99.90
66710;DHT22;53624;0.000;0.000;2023-09-19T03:18:12;20.60;99.90
66710;DHT22;53624;0.000;0.000;2023-09-19T03:20:40;20.60;99.90
66710;DHT22;53624;0.000;0.000;2023-09-19T03:23:07;20.60;99.90
66710;DHT22;53624;0.000;0.000;2023-09-19T03:25:36;20.60;99.90
66710;DHT22;53624;0.000;0.000;2023-09-19T03:28:03;20.60;99.90
66710;DHT22;53624;0.000;0.000;2023-09-19T03:30:34;20.60;99.90
66710;DHT22;53624;0.000;0.000;2023-09-19T03:33:03;20.60;99.90
66710;DHT22;53624;0.000;0.000;2023-09-19T03:35:32;20.60;99.90
66710;DHT22;53624;0.000;0.000;2023-09-19T03:38:01;20.60;99.90
66710;DHT22;53624;0.000;0.000;2023-09-19T03:40:29;20.60;99.90
66710;DHT22;53624;0.000;0.000;2023-09-19T03:42:56;20.50;99.90
66710;DHT22;53624;0.000;0.000;2023-09-19T03:45:23;20.60;99.90
66710;DHT22;53624;0.000;0.000;2023-09-19T03:47:53;20.60;99.90
66710;DHT22;53624;0.000;0.000;2023-09-19T03:50:23;20.60;99.90
66710;DHT22;53624;0.000;0.000;2023-09-19T03:52:51;20.50;99.90
66710;DHT22;53624;0.000;0.000;2023-09-19T03:55:22;20.50;99.90
66710;DHT22;53624;0.000;0.000;2023-09-19T03:57:50;20.50;99.90
66710;DHT22;53624;0.000;0.000;2023-09-19T04:00:18;20.50;99.90
66710;DHT22;53624;0.000;0.000;2023-09-19T04:02:47;20.50;99.90
66710;DHT22;53624;0.000;0.000;2023-09-19T04:05:16;20.50;99.90
66710;DHT22;53624;0.000;0.000;2023-09-19T04:07:43;20.50;99.90
66710;DHT22;53624;0.000;0.000;2023-09-19T04:10:10;20.50;99.90
66710;DHT22;53624;0.000;0.000;2023-09-19T04:12:38;20.50;99.90
66710;DHT22;53624;0.000;0.000;2023-09-19T04:15:06;20.50;99.90
66710;DHT22;53624;0.000;0.000;2023-09-19T04:17:34;20.50;99.90
66710;DHT22;53624;0.000;0.000;2023-09-19T04:20:01;20.50;99.90
66710;DHT22;53624;0.000;0.000;2023-09-19T04:22:32;20.50;99.90
66710;DHT22;53624;0.000;0.000;2023-09-19T04:24:59;20.50;99.90
66710;DHT22;53624;0.000;0.000;2023-09-19T04:27:26;20.50;99.90
66710;DHT22;53624;0.000;0.000;2023-09-19T04:29:54;20.40;99.90
66710;DHT22;53624;0.000;0.000;2023-09-19T04:32:25;20.40;99.90
66710;DHT22;53624;0.000;0.000;2023-09-19T04:34:55;20.40;99.90
66710;DHT22;53624;0.000;0.000;2023-09-19T04:37:26;20.40;99.90
66710;DHT22;53624;0.000;0.000;2023-09-19T04:39:54;20.40;99.90
66710;DHT22;53624;0.000;0.000;2023-09-19T04:42:22;20.40;99.90
66710;DHT22;53624;0.000;0.000;2023-09-19T04:44:50;20.40;99.90
66710;DHT22;53624;0.000;0.000;2023-09-19T04:47:20;20.40;99.90
66710;DHT22;53624;0.000;0.000;2023-09-19T04:49:48;20.40;99.90
66710;DHT22;53624;0.000;0.000;2023-09-19T04:52:16;20.40;99.90
66710;DHT22;53624;0.000;0.000;2023-09-19T04:54:43;20.40;99.90
66710;DHT22;53624;0.000;0.000;2023-09-19T04:57:12;20.40;99.90
66710;DHT22;53624;0.000;0.000;2023-09-19T04:59:40;20.40;99.90
66710;DHT22;53624;0.000;0.000;2023-09-19T05:02:07;20.40;99.90
66710;DHT22;53624;0.000;0.000;2023-09-19T05:04:35;20.40;99.90
66710;DHT22;53624;0.000;0.000;2023-09-19T05:07:03;20.40;99.90
66710;DHT22;53624;0.000;0.000;2023-09-19T05:09:30;20.40;99.90
66710;DHT22;53624;0.000;0.000;2023-09-19T05:14:28;20.40;99.90
66710;DHT22;53624;0.000;0.000;2023-09-19T05:16:55;20.40;99.90
66710;DHT22;53624;0.000;0.000;2023-09-19T05:19:23;20.40;99.90
66710;DHT22;53624;0.000;0.000;2023-09-19T05:21:50;20.40;99.90
66710;DHT22;53624;0.000;0.000;2023-09-19T05:24:17;20.40;99.90
66710;DHT22;53624;0.000;0.000;2023-09-19T05:26:44;20.40;99.90
66710;DHT22;53624;0.000;0.000;2023-09-19T05:29:12;20.40;99.90
66710;DHT22;53624;0.000;0.000;2023-09-19T05:31:41;20.40;99.90
66710;DHT22;53624;0.000;0.000;2023-09-19T05:34:09;20.40;99.90
66710;DHT22;53624;0.000;0.000;2023-09-19T05:36:37;20.40;99.90
66710;DHT22;53624;0.000;0.000;2023-09-19T05:39:05;20.20;99.90
66710;DHT22;53624;0.000;0.000;2023-09-19T05:41:35;20.00;99.90
66710;DHT22;53624;0.000;0.000;2023-09-19T05:44:05;19.90;99.90
66710;DHT22;53624;0.000;0.000;2023-09-19T05:46:33;19.80;99.90
66710;DHT22;53624;0.000;0.000;2023-09-19T05:49:02;19.60;99.90
66710;DHT22;53624;0.000;0.000;2023-09-19T05:51:29;19.60;99.90
66710;DHT22;53624;0.000;0.000;2023-09-19T05:53:57;19.60;99.90
66710;DHT22;53624;0.000;0.000;2023-09-19T05:56:24;19.60;99.90
66710;DHT22;53624;0.000;0.000;2023-09-19T05:58:51;19.50;99.90
66710;DHT22;53624;0.000;0.000;2023-09-19T06:01:19;19.40;99.90
66710;DHT22;53624;0.000;0.000;2023-09-19T06:03:46;19.40;99.90
66710;DHT22;53624;0.000;0.000;2023-09-19T06:06:15;19.40;99.90
66710;DHT22;53624;0.000;0.000;2023-09-19T06:08:42;19.40;99.90
66710;DHT22;53624;0.000;0.000;2023-09-19T06:11:10;19.40;99.90
66710;DHT22;53624;0.000;0.000;2023-09-19T06:13:38;19.40;99.90
66710;DHT22;53624;0.000;0.000;2023-09-19T06:16:06;19.40;99.90
66710;DHT22;53624;0.000;0.000;2023-09-19T06:18:35;19.40;99.90
66710;DHT22;53624;0.000;0.000;2023-09-19T06:21:02;19.40;99.90
66710;DHT22;53624;0.000;0.000;2023-09-19T06:23:34;19.40;99.90
66710;DHT22;53624;0.000;0.000;2023-09-19T06:26:02;19.30;99.90
66710;DHT22;53624;0.000;0.000;2023-09-19T06:28:32;19.30;99.90
66710;DHT22;53624;0.000;0.000;2023-09-19T06:31:01;19.30;99.90
66710;DHT22;53624;0.000;0.000;2023-09-19T06:33:29;19.40;99.90
66710;DHT22;53624;0.000;0.000;2023-09-19T06:35:57;19.40;99.90
66710;DHT22;53624;0.000;0.000;2023-09-19T06:38:26;19.30;99.90
66710;DHT22;53624;0.000;0.000;2023-09-19T06:40:55;19.40;99.90
66710;DHT22;53624;0.000;0.000;2023-09-19T06:43:23;19.40;99.90
66710;DHT22;53624;0.000;0.000;2023-09-19T06:45:50;19.40;99.90
66710;DHT22;53624;0.000;0.000;2023-09-19T06:48:20;19.40;99.90
66710;DHT22;53624;0.000;0.000;2023-09-19T06:50:47;19.40;99.90
66710;DHT22;53624;0.000;0.000;2023-09-19T06:53:15;19.40;99.90
66710;DHT22;53624;0.000;0.000;2023-09-19T06:55:42;19.40;99.90
66710;DHT22;53624;0.000;0.000;2023-09-19T06:58:11;19.40;99.90
66710;DHT22;53624;0.000;0.000;2023-09-19T07:00:38;19.40;99.90
66710;DHT22;53624;0.000;0.000;2023-09-19T07:03:06;19.40;99.90
66710;DHT22;53624;0.000;0.000;2023-09-19T07:05:36;19.40;99.90
66710;DHT22;53624;0.000;0.000;2023-09-19T07:08:05;19.50;99.90
66710;DHT22;53624;0.000;0.000;2023-09-19T07:10:32;19.50;99.90
66710;DHT22;53624;0.000;0.000;2023-09-19T07:13:00;19.60;99.90
66710;DHT22;53624;0.000;0.000;2023-09-19T07:15:31;19.60;99.90
66710;DHT22;53624;0.000;0.000;2023-09-19T07:18:01;19.70;99.90
66710;DHT22;53624;0.000;0.000;2023-09-19T07:20:28;19.90;99.90
66710;DHT22;53624;0.000;0.000;2023-09-19T07:22:58;20.00;99.90
66710;DHT22;53624;0.000;0.000;2023-09-19T07:25:26;20.20;99.90
66710;DHT22;53624;0.000;0.000;2023-09-19T07:27:54;20.30;99.90
66710;DHT22;53624;0.000;0.000;2023-09-19T07:30:22;20.40;99.90
66710;DHT22;53624;0.000;0.000;2023-09-19T07:32:50;20.30;99.90
66710;DHT22;53624;0.000;0.000;2023-09-19T07:35:18;20.30;99.90
66710;DHT22;53624;0.000;0.000;2023-09-19T07:37:46;20.40;99.90
66710;DHT22;53624;0.000;0.000;2023-09-19T07:40:15;20.40;99.90
66710;DHT22;53624;0.000;0.000;2023-09-19T07:42:42;20.40;99.90
66710;DHT22;53624;0.000;0.000;2023-09-19T07:45:10;20.50;99.90
66710;DHT22;53624;0.000;0.000;2023-09-19T07:47:40;20.50;99.90
66710;DHT22;53624;0.000;0.000;2023-09-19T07:50:10;20.40;99.90
66710;DHT22;53624;0.000;0.000;2023-09-19T07:52:37;20.40;99.90
66710;DHT22;53624;0.000;0.000;2023-09-19T07:55:05;20.40;99.90
66710;DHT22;53624;0.000;0.000;2023-09-19T07:57:35;20.80;99.90
66710;DHT22;53624;0.000;0.000;2023-09-19T08:00:03;21.20;99.90
66710;DHT22;53624;0.000;0.000;2023-09-19T08:02:37;21.70;99.90
66710;DHT22;53624;0.000;0.000;2023-09-19T08:05:05;21.90;99.90
66710;DHT22;53624;0.000;0.000;2023-09-19T08:07:37;22.00;99.90
66710;DHT22;53624;0.000;0.000;2023-09-19T08:10:04;22.30;99.90
66710;DHT22;53624;0.000;0.000;2023-09-19T08:12:33;22.90;99.90
66710;DHT22;53624;0.000;0.000;2023-09-19T08:15:01;23.60;99.90
66710;DHT22;53624;0.000;0.000;2023-09-19T08:17:31;24.20;99.90
66710;DHT22;53624;0.000;0.000;2023-09-19T08:20:00;24.70;99.90
66710;DHT22;53624;0.000;0.000;2023-09-19T08:22:31;25.10;99.90
66710;DHT22;53624;0.000;0.000;2023-09-19T08:25:00;25.40;99.90
66710;DHT22;53624;0.000;0.000;2023-09-19T08:27:30;25.50;99.90
66710;DHT22;53624;0.000;0.000;2023-09-19T08:29:57;25.60;99.90
66710;DHT22;53624;0.000;0.000;2023-09-19T08:32:25;25.50;99.90
66710;DHT22;53624;0.000;0.000;2023-09-19T08:34:53;25.20;99.90
66710;DHT22;53624;0.000;0.000;2023-09-19T08:37:20;24.90;99.90
66710;DHT22;53624;0.000;0.000;2023-09-19T08:39:47;24.70;99.90
66710;DHT22;53624;0.000;0.000;2023-09-19T08:42:16;24.60;99.90
66710;DHT22;53624;0.000;0.000;2023-09-19T08:44:46;24.70;99.90
66710;DHT22;53624;0.000;0.000;2023-09-19T08:47:14;24.70;99.90
66710;DHT22;53624;0.000;0.000;2023-09-19T08:49:45;24.90;99.90
66710;DHT22;53624;0.000;0.000;2023-09-19T08:52:16;24.70;99.90
66710;DHT22;53624;0.000;0.000;2023-09-19T08:54:46;24.60;99.90
66710;DHT22;53624;0.000;0.000;2023-09-19T08:57:17;24.40;99.90
66710;DHT22;53624;0.000;0.000;2023-09-19T08:59:47;24.50;99.90
66710;DHT22;53624;0.000;0.000;2023-09-19T09:02:15;24.50;99.90
66710;DHT22;53624;0.000;0.000;2023-09-19T09:04:45;24.50;99.90
66710;DHT22;53624;0.000;0.000;2023-09-19T09:07:12;24.60;99.90
66710;DHT22;53624;0.000;0.000;2023-09-19T09:09:40;24.70;99.90
66710;DHT22;53624;0.000;0.000;2023-09-19T09:12:08;24.90;99.90
66710;DHT22;53624;0.000;0.000;2023-09-19T09:14:37;24.90;99.90
66710;DHT22;53624;0.000;0.000;2023-09-19T09:17:04;25.00;99.90
66710;DHT22;53624;0.000;0.000;2023-09-19T09:19:33;25.00;99.90
66710;DHT22;53624;0.000;0.000;2023-09-19T09:22:07;24.80;99.90
66710;DHT22;53624;0.000;0.000;2023-09-19T09:24:34;24.80;99.90
66710;DHT22;53624;0.000;0.000;2023-09-19T09:27:04;24.70;99.90
66710;DHT22;53624;0.000;0.000;2023-09-19T09:29:45;24.40;99.90
66710;DHT22;53624;0.000;0.000;2023-09-19T09:32:19;24.40;99.90
66710;DHT22;53624;0.000;0.000;2023-09-19T09:34:47;24.30;99.90
66710;DHT22;53624;0.000;0.000;2023-09-19T09:37:15;24.30;99.90
66710;DHT22;53624;0.000;0.000;2023-09-19T09:39:49;24.50;99.90
66710;DHT22;53624;0.000;0.000;2023-09-19T09:42:29;24.70;99.90
66710;DHT22;53624;0.000;0.000;2023-09-19T09:45:24;24.80;99.90
66710;DHT22;53624;0.000;0.000;2023-09-19T09:48:03;24.90;99.90
66710;DHT22;53624;0.000;0.000;2023-09-19T09:50:36;25.10;99.60
66710;DHT22;53624;0.000;0.000;2023-09-19T09:53:21;25.30;99.90
66710;DHT22;53624;0.000;0.000;2023-09-19T09:55:57;25.40;99.70
66710;DHT22;53624;0.000;0.000;2023-09-19T09:58:25;25.30;99.90
66710;DHT22;53624;0.000;0.000;2023-09-19T10:00:56;25.30;99.90
66710;DHT22;53624;0.000;0.000;2023-09-19T10:03:32;25.30;99.90
66710;DHT22;53624;0.000;0.000;2023-09-19T10:06:06;25.30;99.80
66710;DHT22;53624;0.000;0.000;2023-09-19T10:08:57;25.20;99.80
66710;DHT22;53624;0.000;0.000;2023-09-19T10:11:30;25.30;99.90
66710;DHT22;53624;0.000;0.000;2023-09-19T10:13:58;25.50;99.40
66710;DHT22;53624;0.000;0.000;2023-09-19T10:16:33;25.60;99.90
66710;DHT22;53624;0.000;0.000;2023-09-19T10:19:02;25.70;99.60
66710;DHT22;53624;0.000;0.000;2023-09-19T10:21:34;25.70;98.70
66710;DHT22;53624;0.000;0.000;2023-09-19T10:24:03;25.80;98.20
66710;DHT22;53624;0.000;0.000;2023-09-19T10:26:33;25.90;99.00
66710;DHT22;53624;0.000;0.000;2023-09-19T10:29:02;25.80;99.90
66710;DHT22;53624;0.000;0.000;2023-09-19T10:31:34;25.70;99.90
66710;DHT22;53624;0.000;0.000;2023-09-19T10:34:03;25.70;99.80
66710;DHT22;53624;0.000;0.000;2023-09-19T10:36:32;25.70;99.60
66710;DHT22;53624;0.000;0.000;2023-09-19T10:39:00;25.50;99.80
66710;DHT22;53624;0.000;0.000;2023-09-19T10:41:32;25.30;99.80
66710;DHT22;53624;0.000;0.000;2023-09-19T10:44:03;25.10;99.90
66710;DHT22;53624;0.000;0.000;2023-09-19T10:46:31;25.20;99.90
66710;DHT22;53624;0.000;0.000;2023-09-19T10:49:00;25.40;99.90
66710;DHT22;53624;0.000;0.000;2023-09-19T10:51:29;25.60;99.90
66710;DHT22;53624;0.000;0.000;2023-09-19T10:53:59;25.70;99.90
66710;DHT22;53624;0.000;0.000;2023-09-19T10:56:30;25.80;98.70
66710;DHT22;53624;0.000;0.000;2023-09-19T10:59:06;25.90;98.20
66710;DHT22;53624;0.000;0.000;2023-09-19T11:01:41;25.90;97.80
66710;DHT22;53624;0.000;0.000;2023-09-19T11:04:21;26.00;97.50
66710;DHT22;53624;0.000;0.000;2023-09-19T11:06:59;26.00;95.80
66710;DHT22;53624;0.000;0.000;2023-09-19T11:09:34;25.90;96.00
66710;DHT22;53624;0.000;0.000;2023-09-19T11:12:09;26.00;94.60
66710;DHT22;53624;0.000;0.000;2023-09-19T11:14:37;26.10;96.00
66710;DHT22;53624;0.000;0.000;2023-09-19T11:25:43;26.50;93.90
66710;DHT22;53624;0.000;0.000;2023-09-19T11:28:31;26.50;94.10
66710;DHT22;53624;0.000;0.000;2023-09-19T11:31:00;26.70;94.00
66710;DHT22;53624;0.000;0.000;2023-09-19T11:33:47;26.80;93.70
66710;DHT22;53624;0.000;0.000;2023-09-19T11:36:15;26.90;94.60
66710;DHT22;53624;0.000;0.000;2023-09-19T11:38:58;27.10;95.40
66710;DHT22;53624;0.000;0.000;2023-09-19T11:41:37;27.20;95.50
66710;DHT22;53624;0.000;0.000;2023-09-19T11:46:54;26.90;95.60
66710;DHT22;53624;0.000;0.000;2023-09-19T11:49:25;26.80;96.40
66710;DHT22;53624;0.000;0.000;2023-09-19T11:51:56;26.50;97.20
66710;DHT22;53624;0.000;0.000;2023-09-19T11:54:23;26.10;97.40
66710;DHT22;53624;0.000;0.000;2023-09-19T11:56:55;25.80;97.60
66710;DHT22;53624;0.000;0.000;2023-09-19T11:59:23;25.50;97.70
66710;DHT22;53624;0.000;0.000;2023-09-19T12:01:54;25.30;98.40
66710;DHT22;53624;0.000;0.000;2023-09-19T12:04:33;25.10;98.70
66710;DHT22;53624;0.000;0.000;2023-09-19T12:07:04;25.10;98.40
66710;DHT22;53624;0.000;0.000;2023-09-19T12:09:31;25.40;97.00
66710;DHT22;53624;0.000;0.000;2023-09-19T12:12:00;25.70;95.60
66710;DHT22;53624;0.000;0.000;2023-09-19T12:14:27;25.90;94.60
66710;DHT22;53624;0.000;0.000;2023-09-19T12:16:55;26.30;93.80
66710;DHT22;53624;0.000;0.000;2023-09-19T12:19:22;26.50;93.20
66710;DHT22;53624;0.000;0.000;2023-09-19T12:21:54;26.60;92.90
66710;DHT22;53624;0.000;0.000;2023-09-19T12:24:22;26.80;93.60
66710;DHT22;53624;0.000;0.000;2023-09-19T12:26:52;27.00;93.40
66710;DHT22;53624;0.000;0.000;2023-09-19T12:29:21;27.10;92.90
66710;DHT22;53624;0.000;0.000;2023-09-19T12:31:52;27.10;92.40
66710;DHT22;53624;0.000;0.000;2023-09-19T12:34:21;27.20;91.90
66710;DHT22;53624;0.000;0.000;2023-09-19T12:36:49;27.10;92.20
66710;DHT22;53624;0.000;0.000;2023-09-19T12:39:31;27.10;91.20
66710;DHT22;53624;0.000;0.000;2023-09-19T12:41:58;27.00;92.00
66710;DHT22;53624;0.000;0.000;2023-09-19T12:44:27;26.80;91.70
66710;DHT22;53624;0.000;0.000;2023-09-19T12:46:55;26.50;93.00
66710;DHT22;53624;0.000;0.000;2023-09-19T12:49:25;26.20;93.90
66710;DHT22;53624;0.000;0.000;2023-09-19T12:51:54;26.10;94.30
66710;DHT22;53624;0.000;0.000;2023-09-19T12:54:22;25.90;94.80
66710;DHT22;53624;0.000;0.000;2023-09-19T12:56:51;25.70;94.00
66710;DHT22;53624;0.000;0.000;2023-09-19T12:59:28;25.60;94.80
66710;DHT22;53624;0.000;0.000;2023-09-19T13:02:04;25.50;95.70
66710;DHT22;53624;0.000;0.000;2023-09-19T13:04:33;25.50;96.30
66710;DHT22;53624;0.000;0.000;2023-09-19T13:07:06;25.40;96.70
66710;DHT22;53624;0.000;0.000;2023-09-19T13:09:34;25.40;96.50
66710;DHT22;53624;0.000;0.000;2023-09-19T13:12:04;25.30;97.00
66710;DHT22;53624;0.000;0.000;2023-09-19T13:14:33;25.30;95.90
66710;DHT22;53624;0.000;0.000;2023-09-19T13:17:05;25.20;96.80
66710;DHT22;53624;0.000;0.000;2023-09-19T13:19:42;25.20;96.70
66710;DHT22;53624;0.000;0.000;2023-09-19T13:24:57;25.10;95.80
66710;DHT22;53624;0.000;0.000;2023-09-19T13:27:25;25.10;97.30
66710;DHT22;53624;0.000;0.000;2023-09-19T13:29:54;25.00;97.10
66710;DHT22;53624;0.000;0.000;2023-09-19T13:32:23;25.00;97.10
66710;DHT22;53624;0.000;0.000;2023-09-19T13:34:50;25.00;96.50
66710;DHT22;53624;0.000;0.000;2023-09-19T13:37:18;25.00;96.90
66710;DHT22;53624;0.000;0.000;2023-09-19T13:39:45;25.00;97.00
66710;DHT22;53624;0.000;0.000;2023-09-19T13:42:14;25.00;95.90
66710;DHT22;53624;0.000;0.000;2023-09-19T13:44:42;25.00;95.70
66710;DHT22;53624;0.000;0.000;2023-09-19T13:47:09;25.00;94.90
66710;DHT22;53624;0.000;0.000;2023-09-19T13:49:41;25.10;95.40
66710;DHT22;53624;0.000;0.000;2023-09-19T13:52:08;25.00;94.80
66710;DHT22;53624;0.000;0.000;2023-09-19T13:54:36;24.90;94.90
66710;DHT22;53624;0.000;0.000;2023-09-19T13:57:04;24.90;95.00
66710;DHT22;53624;0.000;0.000;2023-09-19T13:59:31;24.90;95.80
66710;DHT22;53624;0.000;0.000;2023-09-19T14:01:58;24.90;97.10
66710;DHT22;53624;0.000;0.000;2023-09-19T14:04:26;24.90;96.10
66710;DHT22;53624;0.000;0.000;2023-09-19T14:06:56;24.90;95.50
66710;DHT22;53624;0.000;0.000;2023-09-19T14:09:23;24.90;95.30
66710;DHT22;53624;0.000;0.000;2023-09-19T14:11:51;24.90;94.80
66710;DHT22;53624;0.000;0.000;2023-09-19T14:14:18;24.90;96.40
66710;DHT22;53624;0.000;0.000;2023-09-19T14:16:46;24.90;96.30
66710;DHT22;53624;0.000;0.000;2023-09-19T14:19:14;24.90;96.50
66710;DHT22;53624;0.000;0.000;2023-09-19T14:21:42;24.80;96.50
66710;DHT22;53624;0.000;0.000;2023-09-19T14:24:11;24.80;96.50
66710;DHT22;53624;0.000;0.000;2023-09-19T14:26:43;24.80;96.50
66710;DHT22;53624;0.000;0.000;2023-09-19T14:29:10;24.70;95.40
66710;DHT22;53624;0.000;0.000;2023-09-19T14:31:39;24.70;95.00
66710;DHT22;53624;0.000;0.000;2023-09-19T14:34:07;24.70;93.60
66710;DHT22;53624;0.000;0.000;2023-09-19T14:36:35;24.70;93.70
66710;DHT22;53624;0.000;0.000;2023-09-19T14:39:04;24.60;94.60
66710;DHT22;53624;0.000;0.000;2023-09-19T14:41:33;24.50;94.60
66710;DHT22;53624;0.000;0.000;2023-09-19T14:44:02;24.50;94.30
66710;DHT22;53624;0.000;0.000;2023-09-19T14:46:29;24.40;94.80
66710;DHT22;53624;0.000;0.000;2023-09-19T14:48:56;24.30;94.70
66710;DHT22;53624;0.000;0.000;2023-09-19T14:51:25;24.30;94.60
66710;DHT22;53624;0.000;0.000;2023-09-19T14:53:52;24.30;93.00
66710;DHT22;53624;0.000;0.000;2023-09-19T14:56:20;24.30;94.20
66710;DHT22;53624;0.000;0.000;2023-09-19T14:58:51;24.20;94.10
66710;DHT22;53624;0.000;0.000;2023-09-19T15:01:18;24.20;94.20
66710;DHT22;53624;0.000;0.000;2023-09-19T15:03:45;24.10;94.60
66710;DHT22;53624;0.000;0.000;2023-09-19T15:06:14;24.10;95.00
66710;DHT22;53624;0.000;0.000;2023-09-19T15:08:43;24.00;95.20
66710;DHT22;53624;0.000;0.000;2023-09-19T15:11:13;23.90;95.50
66710;DHT22;53624;0.000;0.000;2023-09-19T15:13:43;23.90;95.70
66710;DHT22;53624;0.000;0.000;2023-09-19T15:16:12;23.80;94.80
66710;DHT22;53624;0.000;0.000;2023-09-19T15:18:40;23.80;95.60
66710;DHT22;53624;0.000;0.000;2023-09-19T15:21:09;23.70;95.90
66710;DHT22;53624;0.000;0.000;2023-09-19T15:23:36;23.70;95.80
66710;DHT22;53624;0.000;0.000;2023-09-19T15:26:04;23.60;95.80
66710;DHT22;53624;0.000;0.000;2023-09-19T15:28:32;23.60;95.70
66710;DHT22;53624;0.000;0.000;2023-09-19T15:30:59;23.60;96.00
66710;DHT22;53624;0.000;0.000;2023-09-19T15:33:28;23.50;96.00
66710;DHT22;53624;0.000;0.000;2023-09-19T15:36:03;23.50;96.20
66710;DHT22;53624;0.000;0.000;2023-09-19T15:38:31;23.40;96.30
66710;DHT22;53624;0.000;0.000;2023-09-19T15:40:58;23.40;96.00
66710;DHT22;53624;0.000;0.000;2023-09-19T15:43:26;23.40;96.10
66710;DHT22;53624;0.000;0.000;2023-09-19T15:45:53;23.30;96.40
66710;DHT22;53624;0.000;0.000;2023-09-19T15:48:20;23.30;95.60
66710;DHT22;53624;0.000;0.000;2023-09-19T15:50:49;23.30;96.10
66710;DHT22;53624;0.000;0.000;2023-09-19T15:53:17;23.30;95.30
66710;DHT22;53624;0.000;0.000;2023-09-19T15:55:44;23.30;94.80
66710;DHT22;53624;0.000;0.000;2023-09-19T15:58:11;23.20;95.40
66710;DHT22;53624;0.000;0.000;2023-09-19T16:00:39;23.20;95.10
66710;DHT22;53624;0.000;0.000;2023-09-19T16:03:07;23.20;95.20
66710;DHT22;53624;0.000;0.000;2023-09-19T16:05:35;23.10;95.70
66710;DHT22;53624;0.000;0.000;2023-09-19T16:08:05;23.00;95.50
66710;DHT22;53624;0.000;0.000;2023-09-19T16:10:34;23.00;95.40
66710;DHT22;53624;0.000;0.000;2023-09-19T16:13:01;23.00;94.80
66710;DHT22;53624;0.000;0.000;2023-09-19T16:15:29;23.00;95.80
66710;DHT22;53624;0.000;0.000;2023-09-19T16:17:56;22.90;95.80